createdAt,value
2023-12-19T00:01:00.518Z,6.63
2023-12-19T00:03:27.807Z,6.65
2023-12-19T00:05:55.079Z,6.69
2023-12-19T00:08:21.977Z,6.75
2023-12-19T00:10:48.958Z,6.79
2023-12-19T00:13:15.843Z,6.81
2023-12-19T00:15:43.173Z,6.83
2023-12-19T00:18:10.234Z,6.86
2023-12-19T00:20:37.283Z,6.84
2023-12-19T00:23:04.427Z,6.83
2023-12-19T00:25:33.035Z,6.82
2023-12-19T00:28:00.410Z,6.82
2023-12-19T00:30:28.095Z,6.81
2023-12-19T00:32:55.151Z,6.83
2023-12-19T00:35:22.296Z,6.81
2023-12-19T00:37:49.137Z,6.79
2023-12-19T00:40:16.131Z,6.75
2023-12-19T00:42:43.720Z,6.71
2023-12-19T00:45:12.087Z,6.69
2023-12-19T00:47:40.533Z,6.75
2023-12-19T00:50:09.331Z,6.83
2023-12-19T00:52:36.373Z,6.87
2023-12-19T00:55:03.998Z,6.92
2023-12-19T00:57:31.081Z,6.97
2023-12-19T00:59:57.982Z,6.99
2023-12-19T01:02:24.938Z,6.98
2023-12-19T01:04:52.348Z,6.97
2023-12-19T01:07:19.291Z,6.96
2023-12-19T01:09:46.172Z,6.96
2023-12-19T01:12:13.871Z,6.96
2023-12-19T01:14:40.852Z,6.95
2023-12-19T01:17:07.841Z,6.99
2023-12-19T01:19:35.162Z,7.01
2023-12-19T01:22:02.237Z,7.02
2023-12-19T01:24:29.195Z,7.05
2023-12-19T01:26:56.685Z,7.09
2023-12-19T01:29:24.287Z,7.13
2023-12-19T01:31:51.139Z,7.17
2023-12-19T01:34:18.190Z,7.21
2023-12-19T01:36:56.606Z,7.24
2023-12-19T01:39:25.340Z,7.26
2023-12-19T01:41:53.041Z,7.29
2023-12-19T01:44:20.781Z,7.31
2023-12-19T01:46:48.389Z,7.33
2023-12-19T01:49:15.939Z,7.34
2023-12-19T01:51:43.301Z,7.33
2023-12-19T01:54:12.234Z,7.32
2023-12-19T01:56:39.981Z,7.31
2023-12-19T01:59:07.768Z,7.31
2023-12-19T02:01:36.446Z,7.30
2023-12-19T02:04:04.308Z,7.28
2023-12-19T02:06:34.933Z,7.27
2023-12-19T02:09:02.423Z,7.27
2023-12-19T02:11:30.044Z,7.27
2023-12-19T02:13:59.703Z,7.25
2023-12-19T02:16:27.968Z,7.26
2023-12-19T02:19:04.460Z,7.27
2023-12-19T02:21:32.034Z,7.28
2023-12-19T02:24:00.779Z,7.27
2023-12-19T02:26:28.524Z,7.28
2023-12-19T02:28:55.421Z,7.29
2023-12-19T02:31:22.936Z,7.30
2023-12-19T02:33:50.230Z,7.32
2023-12-19T02:36:18.038Z,7.34
2023-12-19T02:38:45.097Z,7.36
2023-12-19T02:41:12.110Z,7.37
2023-12-19T02:43:53.218Z,7.40
2023-12-19T02:46:23.439Z,7.43
2023-12-19T02:48:50.653Z,7.46
2023-12-19T02:51:20.723Z,7.48
2023-12-19T02:53:48.329Z,7.50
2023-12-19T02:56:15.193Z,7.53
2023-12-19T02:58:42.081Z,7.54
2023-12-19T03:01:09.455Z,7.54
2023-12-19T03:03:36.636Z,7.54
2023-12-19T03:06:03.740Z,7.54
2023-12-19T03:08:30.744Z,7.53
2023-12-19T03:10:59.802Z,7.55
2023-12-19T03:13:26.923Z,7.57
2023-12-19T03:15:54.266Z,7.56
2023-12-19T03:18:26.466Z,7.57
2023-12-19T03:20:53.851Z,7.61
2023-12-19T03:23:22.338Z,7.63
2023-12-19T03:25:49.872Z,7.66
2023-12-19T03:28:17.013Z,7.69
2023-12-19T03:30:44.050Z,7.70
2023-12-19T03:33:11.076Z,7.73
2023-12-19T03:35:38.198Z,7.73
2023-12-19T03:38:05.069Z,7.74
2023-12-19T03:40:31.976Z,7.76
2023-12-19T03:42:58.861Z,7.76
2023-12-19T03:45:26.128Z,7.79
2023-12-19T03:47:53.309Z,7.81
2023-12-19T03:50:20.444Z,7.82
2023-12-19T03:52:47.973Z,7.84
2023-12-19T03:55:14.819Z,7.87
2023-12-19T03:57:41.746Z,7.88
2023-12-19T04:00:10.262Z,7.88
2023-12-19T04:02:37.116Z,7.89
2023-12-19T04:05:04.618Z,7.92
2023-12-19T04:07:33.788Z,7.95
2023-12-19T04:10:01.986Z,7.97
2023-12-19T04:12:29.186Z,7.99
2023-12-19T04:14:56.097Z,7.98
2023-12-19T04:17:23.373Z,7.98
2023-12-19T04:19:50.468Z,7.97
2023-12-19T04:22:17.617Z,7.94
2023-12-19T04:24:44.610Z,7.91
2023-12-19T04:27:11.569Z,7.90
2023-12-19T04:29:40.218Z,7.89
2023-12-19T04:32:07.577Z,7.89
2023-12-19T04:34:34.627Z,7.89
2023-12-19T04:37:01.810Z,7.87
2023-12-19T04:39:28.745Z,7.86
2023-12-19T04:41:55.723Z,7.83
2023-12-19T04:44:23.500Z,7.82
2023-12-19T04:46:50.359Z,7.82
2023-12-19T04:49:17.295Z,7.83
2023-12-19T04:51:44.795Z,7.84
2023-12-19T04:54:11.789Z,7.85
2023-12-19T04:56:38.666Z,7.84
2023-12-19T04:59:06.711Z,7.82
2023-12-19T05:01:33.767Z,7.81
2023-12-19T05:04:01.301Z,7.81
2023-12-19T05:06:28.289Z,7.81
2023-12-19T05:08:55.228Z,7.81
2023-12-19T05:11:22.148Z,7.79
2023-12-19T05:13:48.999Z,7.75
2023-12-19T05:16:17.704Z,7.73
2023-12-19T05:18:46.397Z,7.70
2023-12-19T05:21:14.028Z,7.67
2023-12-19T05:23:41.904Z,7.66
2023-12-19T05:26:10.125Z,7.66
2023-12-19T05:28:40.784Z,7.65
2023-12-19T05:31:10.542Z,7.64
2023-12-19T05:33:38.073Z,7.60
2023-12-19T05:36:05.391Z,7.57
2023-12-19T05:38:34.092Z,7.53
2023-12-19T05:41:01.378Z,7.51
2023-12-19T05:43:29.086Z,7.52
2023-12-19T05:45:56.183Z,7.51
2023-12-19T05:48:24.657Z,7.50
2023-12-19T05:50:52.995Z,7.50
2023-12-19T05:53:19.907Z,7.47
2023-12-19T05:55:46.905Z,7.43
2023-12-19T05:58:14.703Z,7.42
2023-12-19T06:00:41.827Z,7.38
2023-12-19T06:03:10.648Z,7.37
2023-12-19T06:05:40.212Z,7.36
2023-12-19T06:08:08.526Z,7.36
2023-12-19T06:10:35.434Z,7.36
2023-12-19T06:13:02.500Z,7.35
2023-12-19T06:15:29.654Z,7.34
2023-12-19T06:17:56.553Z,7.35
2023-12-19T06:20:23.497Z,7.37
2023-12-19T06:22:50.664Z,7.41
2023-12-19T06:25:17.595Z,7.45
2023-12-19T06:27:45.416Z,7.50
2023-12-19T06:30:22.661Z,7.57
2023-12-19T06:32:54.990Z,7.66
2023-12-19T06:35:22.097Z,7.71
2023-12-19T06:37:49.162Z,7.73
2023-12-19T06:40:16.295Z,7.76
2023-12-19T06:42:43.522Z,7.82
2023-12-19T06:45:13.641Z,7.87
2023-12-19T06:47:40.804Z,7.91
2023-12-19T06:50:08.626Z,7.94
2023-12-19T06:52:35.637Z,7.98
2023-12-19T06:55:02.745Z,8.01
2023-12-19T06:57:30.109Z,8.04
2023-12-19T06:59:57.166Z,8.06
2023-12-19T07:02:24.053Z,8.08
2023-12-19T07:04:50.961Z,8.12
2023-12-19T07:07:18.254Z,8.14
2023-12-19T07:09:45.171Z,8.18
2023-12-19T07:12:13.148Z,8.23
2023-12-19T07:14:40.087Z,8.27
2023-12-19T07:17:07.146Z,8.31
2023-12-19T07:19:35.422Z,8.32
2023-12-19T07:22:02.546Z,8.31
2023-12-19T07:24:30.872Z,8.32
2023-12-19T07:26:58.827Z,8.33
2023-12-19T07:29:26.100Z,8.33
2023-12-19T07:31:53.474Z,8.33
2023-12-19T07:34:20.631Z,8.32
2023-12-19T07:36:47.798Z,8.34
2023-12-19T07:39:15.008Z,8.37
2023-12-19T07:41:42.127Z,8.39
2023-12-19T07:44:12.405Z,8.41
2023-12-19T07:46:42.053Z,8.43
2023-12-19T07:49:11.146Z,8.44
2023-12-19T07:51:38.392Z,8.47
2023-12-19T07:54:05.522Z,8.51
2023-12-19T07:56:32.391Z,8.56
2023-12-19T07:58:59.664Z,8.66
2023-12-19T08:01:26.972Z,8.87
2023-12-19T08:03:54.554Z,9.05
2023-12-19T08:06:21.570Z,9.21
2023-12-19T08:08:51.777Z,9.31
2023-12-19T08:11:18.926Z,9.38
2023-12-19T08:13:45.925Z,9.50
2023-12-19T08:16:12.993Z,9.63
2023-12-19T08:18:40.229Z,9.81
2023-12-19T08:21:07.601Z,9.99
2023-12-19T08:23:34.675Z,10.24
2023-12-19T08:26:01.610Z,10.55
2023-12-19T08:28:28.475Z,10.90
2023-12-19T08:30:55.494Z,11.25
2023-12-19T08:33:24.353Z,11.56
2023-12-19T08:35:51.835Z,11.82
2023-12-19T08:38:18.737Z,12.01
2023-12-19T08:40:46.892Z,12.14
2023-12-19T08:43:13.959Z,12.23
2023-12-19T08:45:40.884Z,12.40
2023-12-19T08:48:08.146Z,12.34
2023-12-19T08:50:35.744Z,12.17
2023-12-19T08:53:02.647Z,12.01
2023-12-19T08:55:31.616Z,11.88
2023-12-19T08:57:59.036Z,11.77
2023-12-19T09:00:26.077Z,11.64
2023-12-19T09:02:53.113Z,11.64
2023-12-19T09:05:20.698Z,11.90
2023-12-19T09:07:48.332Z,12.29
2023-12-19T09:10:16.612Z,12.53
2023-12-19T09:12:44.268Z,12.60
2023-12-19T09:15:11.991Z,12.44
2023-12-19T09:17:40.295Z,12.21
2023-12-19T09:20:09.573Z,12.00
2023-12-19T09:22:37.070Z,11.80
2023-12-19T09:25:04.638Z,11.64
2023-12-19T09:27:31.565Z,11.58
2023-12-19T09:29:58.769Z,11.58
2023-12-19T09:32:25.817Z,11.53
2023-12-19T09:34:52.869Z,11.51
2023-12-19T09:37:24.605Z,11.51
2023-12-19T09:39:54.127Z,11.57
2023-12-19T09:42:22.300Z,11.60
2023-12-19T09:44:49.712Z,11.64
2023-12-19T09:47:24.962Z,11.77
2023-12-19T09:49:55.443Z,11.93
2023-12-19T09:52:24.267Z,12.08
2023-12-19T09:54:52.915Z,12.27
2023-12-19T09:57:21.294Z,12.40
2023-12-19T09:59:54.807Z,12.46
2023-12-19T10:02:26.757Z,12.52
2023-12-19T10:04:54.492Z,12.62
2023-12-19T10:07:21.929Z,12.66
2023-12-19T10:09:56.518Z,12.71
2023-12-19T10:12:33.689Z,12.73
2023-12-19T10:15:15.323Z,12.79
2023-12-19T10:18:06.162Z,12.87
2023-12-19T10:20:33.585Z,12.92
2023-12-19T10:23:05.831Z,12.93
2023-12-19T10:25:42.303Z,12.99
2023-12-19T10:28:14.345Z,13.09
2023-12-19T10:30:41.998Z,13.12
2023-12-19T10:33:09.515Z,13.19
2023-12-19T10:35:41.143Z,13.31
2023-12-19T10:38:09.903Z,13.48
2023-12-19T10:40:38.541Z,13.67
2023-12-19T10:43:06.023Z,13.67
2023-12-19T10:45:34.294Z,13.61
2023-12-19T10:48:02.209Z,13.42
2023-12-19T10:50:30.804Z,13.23
2023-12-19T10:53:02.594Z,13.07
2023-12-19T10:55:38.469Z,12.86
2023-12-19T10:58:06.445Z,12.63
2023-12-19T11:00:38.923Z,12.44
2023-12-19T11:03:15.790Z,12.24
2023-12-19T11:05:47.136Z,12.13
2023-12-19T11:08:17.855Z,12.41
2023-12-19T11:11:04.825Z,12.76
2023-12-19T11:13:34.505Z,12.76
2023-12-19T11:16:11.346Z,12.68
2023-12-19T11:18:46.609Z,12.57
2023-12-19T11:21:45.710Z,12.62
2023-12-19T11:24:19.703Z,12.49
2023-12-19T11:26:52.796Z,12.33
2023-12-19T11:29:43.012Z,12.19
2023-12-19T11:32:30.271Z,12.09
2023-12-19T11:35:14.566Z,12.05
2023-12-19T11:37:45.384Z,12.03
2023-12-19T11:40:43.351Z,12.02
2023-12-19T11:43:10.287Z,12.01
2023-12-19T11:45:37.889Z,11.98
2023-12-19T11:48:40.983Z,11.95
2023-12-19T11:51:09.477Z,11.95
2023-12-19T11:53:37.176Z,12.14
2023-12-19T11:56:09.835Z,12.49
2023-12-19T11:58:37.986Z,12.90
2023-12-19T12:01:10.364Z,13.25
2023-12-19T12:03:38.981Z,13.35
2023-12-19T12:06:06.220Z,13.46
2023-12-19T12:08:33.502Z,13.59
2023-12-19T12:11:06.216Z,13.50
2023-12-19T12:13:35.360Z,13.54
2023-12-19T12:16:03.332Z,13.78
2023-12-19T12:18:32.383Z,14.15
2023-12-19T12:21:09.066Z,14.63
2023-12-19T12:23:36.943Z,14.97
2023-12-19T12:26:07.077Z,15.04
2023-12-19T12:28:36.005Z,14.91
2023-12-19T12:31:04.894Z,14.52
2023-12-19T12:33:33.237Z,14.11
2023-12-19T12:36:00.381Z,13.73
2023-12-19T12:38:27.874Z,13.42
2023-12-19T12:41:00.253Z,13.17
2023-12-19T12:43:37.985Z,12.92
2023-12-19T12:46:09.004Z,12.68
2023-12-19T12:48:38.820Z,12.50
2023-12-19T12:51:07.671Z,12.41
2023-12-19T12:53:35.836Z,12.26
2023-12-19T12:56:09.850Z,12.09
2023-12-19T12:58:37.397Z,11.95
2023-12-19T13:01:05.163Z,11.84
2023-12-19T13:03:33.970Z,11.76
2023-12-19T13:06:02.557Z,11.79
2023-12-19T13:08:30.756Z,11.82
2023-12-19T13:10:59.345Z,11.77
2023-12-19T13:13:26.406Z,11.70
2023-12-19T13:15:54.453Z,11.63
2023-12-19T13:18:22.921Z,11.57
2023-12-19T13:20:50.188Z,11.54
2023-12-19T13:23:17.147Z,11.64
2023-12-19T13:25:45.280Z,11.97
2023-12-19T13:28:12.497Z,12.05
2023-12-19T13:30:42.088Z,12.03
2023-12-19T13:33:10.070Z,11.94
2023-12-19T13:35:37.372Z,11.87
2023-12-19T13:38:04.981Z,11.79
2023-12-19T13:40:32.874Z,11.71
2023-12-19T13:43:00.598Z,11.63
2023-12-19T13:45:29.269Z,11.59
2023-12-19T13:48:00.173Z,11.53
2023-12-19T13:50:28.195Z,11.49
2023-12-19T13:52:55.693Z,11.48
2023-12-19T13:55:22.988Z,11.47
2023-12-19T13:57:49.877Z,11.45
2023-12-19T14:00:25.356Z,11.44
2023-12-19T14:02:56.535Z,11.43
2023-12-19T14:05:23.808Z,11.42
2023-12-19T14:07:50.636Z,11.42
2023-12-19T14:10:17.614Z,11.40
2023-12-19T14:12:47.507Z,11.38
2023-12-19T14:15:15.650Z,11.33
2023-12-19T14:17:44.335Z,11.29
2023-12-19T14:20:13.513Z,11.24
2023-12-19T14:22:41.207Z,11.19
2023-12-19T14:25:10.355Z,11.11
2023-12-19T14:27:38.494Z,11.03
2023-12-19T14:30:08.148Z,10.97
2023-12-19T14:32:37.299Z,10.93
2023-12-19T14:35:06.247Z,10.90
2023-12-19T14:37:35.036Z,10.85
2023-12-19T14:40:03.405Z,10.83
2023-12-19T14:42:31.822Z,10.78
2023-12-19T14:44:59.906Z,10.74
2023-12-19T14:47:27.198Z,10.71
2023-12-19T14:49:54.471Z,10.69
2023-12-19T14:52:21.707Z,10.69
2023-12-19T14:54:49.247Z,10.68
2023-12-19T14:57:16.400Z,10.67
2023-12-19T14:59:43.323Z,10.63
2023-12-19T15:02:10.356Z,10.57
2023-12-19T15:04:37.510Z,10.51
2023-12-19T15:07:05.849Z,10.45
2023-12-19T15:09:34.862Z,10.41
2023-12-19T15:12:03.874Z,10.33
2023-12-19T15:14:34.246Z,10.25
2023-12-19T15:17:01.652Z,10.21
2023-12-19T15:19:28.547Z,10.15
2023-12-19T15:21:55.539Z,10.13
2023-12-19T15:24:22.817Z,10.10
2023-12-19T15:26:50.149Z,10.07
2023-12-19T15:29:18.250Z,10.03
2023-12-19T15:31:46.382Z,9.97
2023-12-19T15:34:13.953Z,9.92
2023-12-19T15:36:41.073Z,9.87
2023-12-19T15:39:08.495Z,9.83
2023-12-19T15:41:35.647Z,9.75
2023-12-19T15:44:08.760Z,9.70
2023-12-19T15:46:41.085Z,9.70
2023-12-19T15:49:10.472Z,9.70
2023-12-19T15:51:38.123Z,9.69
2023-12-19T15:54:05.606Z,9.66
2023-12-19T15:56:33.835Z,9.67
2023-12-19T15:59:02.686Z,9.70
2023-12-19T16:01:30.251Z,9.71
2023-12-19T16:03:57.885Z,9.72
2023-12-19T16:06:27.341Z,9.71
2023-12-19T16:08:54.517Z,9.67
2023-12-19T16:11:24.923Z,9.62
2023-12-19T16:13:53.940Z,9.56
2023-12-19T16:16:20.988Z,9.51
2023-12-19T16:18:49.528Z,9.46
2023-12-19T16:21:19.185Z,9.44
2023-12-19T16:23:57.376Z,9.42
2023-12-19T16:26:32.518Z,9.39
2023-12-19T16:29:00.535Z,9.37
2023-12-19T16:31:29.565Z,9.38
2023-12-19T16:33:57.488Z,9.36
2023-12-19T16:36:24.933Z,9.34
2023-12-19T16:38:52.806Z,9.31
2023-12-19T16:41:23.438Z,9.29
2023-12-19T16:43:51.306Z,9.23
2023-12-19T16:46:23.086Z,9.18
2023-12-19T16:48:53.770Z,9.14
2023-12-19T16:51:21.132Z,9.14
2023-12-19T16:53:48.452Z,9.17
2023-12-19T16:56:15.842Z,9.23
2023-12-19T16:58:44.774Z,9.22
2023-12-19T17:01:17.323Z,9.23
2023-12-19T17:03:45.681Z,9.29
2023-12-19T17:06:12.696Z,9.31
2023-12-19T17:08:39.948Z,9.33
2023-12-19T17:11:08.565Z,9.34
2023-12-19T17:13:36.360Z,9.36
2023-12-19T17:16:03.575Z,9.38
2023-12-19T17:18:30.781Z,9.39
2023-12-19T17:20:57.981Z,9.44
2023-12-19T17:23:27.373Z,9.48
2023-12-19T17:25:57.908Z,9.50
2023-12-19T17:28:24.762Z,9.55
2023-12-19T17:30:51.784Z,9.62
2023-12-19T17:33:18.783Z,9.67
2023-12-19T17:35:45.895Z,9.68
2023-12-19T17:38:12.920Z,9.67
2023-12-19T17:40:39.783Z,9.65
2023-12-19T17:43:07.743Z,9.65
2023-12-19T17:45:34.797Z,9.66
2023-12-19T17:48:01.799Z,9.70
2023-12-19T17:50:30.067Z,9.72
2023-12-19T17:52:56.933Z,9.73
2023-12-19T17:55:23.989Z,9.75
2023-12-19T17:57:50.916Z,9.80
2023-12-19T18:00:18.280Z,9.84
2023-12-19T18:02:45.967Z,9.89
2023-12-19T18:05:13.292Z,9.92
2023-12-19T18:07:41.976Z,9.95
2023-12-19T18:10:11.867Z,9.99
2023-12-19T18:12:39.008Z,10.02
2023-12-19T18:15:08.042Z,10.06
2023-12-19T18:17:35.208Z,10.09
2023-12-19T18:20:02.613Z,10.10
2023-12-19T18:22:29.583Z,10.10
2023-12-19T18:24:56.585Z,10.12
2023-12-19T18:27:23.479Z,10.12
2023-12-19T18:29:50.338Z,10.12
2023-12-19T18:32:17.979Z,10.09
2023-12-19T18:34:52.559Z,10.11
2023-12-19T18:37:21.762Z,10.14
2023-12-19T18:39:48.809Z,10.14
2023-12-19T18:42:15.731Z,10.16
2023-12-19T18:44:42.882Z,10.17
2023-12-19T18:47:09.779Z,10.23
2023-12-19T18:49:37.162Z,10.25
2023-12-19T18:52:04.332Z,10.25
2023-12-19T18:54:31.429Z,10.27
2023-12-19T18:57:00.865Z,10.28
2023-12-19T18:59:27.865Z,10.30
2023-12-19T19:01:54.880Z,10.29
2023-12-19T19:04:23.047Z,10.31
2023-12-19T19:06:50.401Z,10.31
2023-12-19T19:09:17.755Z,10.31
2023-12-19T19:11:46.803Z,10.32
2023-12-19T19:14:14.901Z,10.33
2023-12-19T19:16:43.019Z,10.35
2023-12-19T19:19:10.064Z,10.38
2023-12-19T19:21:37.924Z,10.39
2023-12-19T19:24:05.168Z,10.40
2023-12-19T19:26:32.231Z,10.41
2023-12-19T19:29:01.206Z,10.41
2023-12-19T19:31:31.373Z,10.44
2023-12-19T19:33:58.426Z,10.46
2023-12-19T19:36:29.145Z,10.47
2023-12-19T19:38:56.623Z,10.46
2023-12-19T19:41:25.938Z,10.46
2023-12-19T19:43:55.800Z,10.46
2023-12-19T19:46:22.803Z,10.47
2023-12-19T19:48:50.162Z,10.47
2023-12-19T19:51:17.176Z,10.46
2023-12-19T19:53:45.157Z,10.44
2023-12-19T19:56:12.246Z,10.45
2023-12-19T19:58:40.161Z,10.43
2023-12-19T20:01:07.141Z,10.41
2023-12-19T20:03:34.495Z,10.40
2023-12-19T20:06:01.737Z,10.39
2023-12-19T20:08:31.875Z,10.39
2023-12-19T20:11:00.585Z,10.38
2023-12-19T20:13:27.998Z,10.34
2023-12-19T20:15:55.230Z,10.34
2023-12-19T20:18:22.295Z,10.32
2023-12-19T20:20:49.613Z,10.31
2023-12-19T20:23:16.624Z,10.27
2023-12-19T20:25:44.754Z,10.27
2023-12-19T20:28:12.036Z,10.27
2023-12-19T20:30:40.225Z,10.26
2023-12-19T20:33:07.540Z,10.24
2023-12-19T20:35:38.005Z,10.23
2023-12-19T20:38:04.994Z,10.22
2023-12-19T20:40:34.181Z,10.21
2023-12-19T20:43:01.131Z,10.20
2023-12-19T20:45:28.524Z,10.21
2023-12-19T20:47:56.299Z,10.20
2023-12-19T20:50:23.343Z,10.19
2023-12-19T20:52:56.681Z,10.18
2023-12-19T20:55:25.585Z,10.15
2023-12-19T20:57:53.948Z,10.10
2023-12-19T21:00:23.566Z,10.03
2023-12-19T21:02:52.072Z,9.97
2023-12-19T21:05:20.556Z,9.91
2023-12-19T21:07:49.683Z,9.86
2023-12-19T21:10:17.405Z,9.81
2023-12-19T21:12:44.992Z,9.75
2023-12-19T21:15:13.025Z,9.71
2023-12-19T21:17:40.026Z,9.67
2023-12-19T21:20:07.858Z,9.66
2023-12-19T21:22:34.781Z,9.63
2023-12-19T21:25:01.669Z,9.61
2023-12-19T21:27:30.386Z,9.59
2023-12-19T21:29:57.304Z,9.55
2023-12-19T21:32:24.544Z,9.53
2023-12-19T21:34:53.024Z,9.51
2023-12-19T21:37:20.297Z,9.47
2023-12-19T21:39:47.377Z,9.45
2023-12-19T21:42:14.266Z,9.46
2023-12-19T21:44:41.629Z,9.48
2023-12-19T21:47:08.812Z,9.47
2023-12-19T21:49:38.796Z,9.49
2023-12-19T21:52:07.744Z,9.48
2023-12-19T21:54:35.213Z,9.47
2023-12-19T21:57:03.009Z,9.46
2023-12-19T21:59:30.402Z,9.46
2023-12-19T22:01:58.774Z,9.46
2023-12-19T22:04:26.208Z,9.44
2023-12-19T22:06:53.683Z,9.44
2023-12-19T22:09:20.570Z,9.45
2023-12-19T22:11:48.042Z,9.49
2023-12-19T22:14:30.448Z,9.52
2023-12-19T22:16:57.351Z,9.53
2023-12-19T22:19:24.438Z,9.56
2023-12-19T22:21:51.633Z,9.60
2023-12-19T22:24:18.666Z,9.61
2023-12-19T22:26:45.588Z,9.61
2023-12-19T22:29:12.445Z,9.64
2023-12-19T22:31:39.435Z,9.64
2023-12-19T22:34:06.494Z,9.64
2023-12-19T22:36:33.643Z,9.65
2023-12-19T22:39:00.699Z,9.64
2023-12-19T22:41:27.720Z,9.60
2023-12-19T22:43:54.639Z,9.60
2023-12-19T22:46:21.580Z,9.59
2023-12-19T22:48:48.571Z,9.59
2023-12-19T22:51:15.529Z,9.56
2023-12-19T22:53:42.337Z,9.53
2023-12-19T22:56:18.243Z,9.53
2023-12-19T22:58:45.223Z,9.53
2023-12-19T23:01:21.657Z,9.54
2023-12-19T23:03:49.556Z,9.56
2023-12-19T23:06:20.925Z,9.59
2023-12-19T23:08:49.042Z,9.61
2023-12-19T23:11:16.006Z,9.63
2023-12-19T23:13:43.637Z,9.62
2023-12-19T23:16:10.948Z,9.64
2023-12-19T23:18:40.607Z,9.64
2023-12-19T23:21:09.060Z,9.66
2023-12-19T23:23:36.020Z,9.67
2023-12-19T23:26:03.053Z,9.67
2023-12-19T23:28:30.655Z,9.67
2023-12-19T23:30:57.633Z,9.67
2023-12-19T23:33:24.645Z,9.66
2023-12-19T23:35:51.731Z,9.67
2023-12-19T23:38:18.789Z,9.66
2023-12-19T23:40:45.739Z,9.65
2023-12-19T23:43:12.959Z,9.65
2023-12-19T23:45:39.856Z,9.64
2023-12-19T23:48:07.347Z,9.63
2023-12-19T23:50:36.061Z,9.64
2023-12-19T23:53:03.143Z,9.62
2023-12-19T23:55:30.049Z,9.57
2023-12-19T23:57:56.960Z,9.52
